createdAt,value
2022-12-31T00:01:06.724Z,1.17
2022-12-31T00:03:33.888Z,0.50
2022-12-31T00:06:00.461Z,0.60
2022-12-31T00:08:26.934Z,0.70
2022-12-31T00:10:53.445Z,0.50
2022-12-31T00:13:20.053Z,0.70
2022-12-31T00:15:46.692Z,0.70
2022-12-31T00:18:13.192Z,0.60
2022-12-31T00:20:41.860Z,0.60
2022-12-31T00:23:10.192Z,0.50
2022-12-31T00:25:36.721Z,0.60
2022-12-31T00:28:05.005Z,0.60
2022-12-31T00:30:31.778Z,0.70
2022-12-31T00:32:58.312Z,0.60
2022-12-31T00:35:24.991Z,0.85
2022-12-31T00:37:53.228Z,0.75
2022-12-31T00:40:19.758Z,0.70
2022-12-31T00:42:46.301Z,0.88
2022-12-31T00:45:12.692Z,0.90
2022-12-31T00:47:39.216Z,0.77
2022-12-31T00:50:06.225Z,0.60
2022-12-31T00:52:32.658Z,0.90
2022-12-31T00:54:59.238Z,0.80
2022-12-31T00:57:25.627Z,0.77
2022-12-31T00:59:52.259Z,0.60
2022-12-31T01:02:18.778Z,0.70
2022-12-31T01:04:45.370Z,0.93
2022-12-31T01:07:11.874Z,0.68
2022-12-31T01:09:38.291Z,0.70
2022-12-31T01:12:07.146Z,0.85
2022-12-31T01:14:33.914Z,0.80
2022-12-31T01:17:00.385Z,0.70
2022-12-31T01:19:29.273Z,0.50
2022-12-31T01:21:56.302Z,0.75
2022-12-31T01:24:22.832Z,0.60
2022-12-31T01:26:49.438Z,0.60
2022-12-31T01:29:17.002Z,0.65
2022-12-31T01:31:43.620Z,0.60
2022-12-31T01:34:10.121Z,0.57
2022-12-31T01:36:38.024Z,0.73
2022-12-31T01:39:06.430Z,0.70
2022-12-31T01:41:39.037Z,0.93
2022-12-31T01:44:11.227Z,0.90
2022-12-31T01:46:42.477Z,0.75
2022-12-31T01:49:29.882Z,0.68
2022-12-31T01:52:06.986Z,0.70
2022-12-31T01:54:38.100Z,1.00
2022-12-31T01:57:05.321Z,0.75
2022-12-31T01:59:33.098Z,0.80
2022-12-31T02:04:28.166Z,0.90
2022-12-31T02:07:00.334Z,0.50
2022-12-31T02:09:26.892Z,0.73
2022-12-31T02:11:53.557Z,0.77
2022-12-31T02:14:28.412Z,0.60
2022-12-31T02:17:07.443Z,0.60
2022-12-31T02:19:54.679Z,0.70
2022-12-31T02:22:45.971Z,0.70
2022-12-31T02:25:39.601Z,0.68
2022-12-31T02:28:21.575Z,0.70
2022-12-31T02:30:52.605Z,1.08
2022-12-31T02:33:32.896Z,0.80
2022-12-31T02:36:20.478Z,0.75
2022-12-31T02:38:49.358Z,0.60
2022-12-31T02:41:36.886Z,0.93
2022-12-31T02:44:24.364Z,0.50
2022-12-31T02:47:08.841Z,0.60
2022-12-31T02:49:53.739Z,0.80
2022-12-31T02:52:38.908Z,0.60
2022-12-31T02:55:44.379Z,0.60
2022-12-31T02:59:06.478Z,0.50
2022-12-31T03:01:56.094Z,0.57
2022-12-31T03:04:34.037Z,0.60
2022-12-31T03:07:06.760Z,0.60
2022-12-31T03:09:34.644Z,0.50
2022-12-31T03:12:20.764Z,0.63
2022-12-31T03:14:47.361Z,0.43
2022-12-31T03:17:13.842Z,0.60
2022-12-31T03:19:58.925Z,0.60
2022-12-31T03:22:28.184Z,0.70
2022-12-31T03:25:18.307Z,0.57
2022-12-31T03:27:46.539Z,0.70
2022-12-31T03:30:14.877Z,0.50
2022-12-31T03:32:42.190Z,0.70
2022-12-31T03:35:09.931Z,0.80
2022-12-31T03:37:36.428Z,0.95
2022-12-31T03:40:02.903Z,0.60
2022-12-31T03:42:29.489Z,0.60
2022-12-31T03:44:56.077Z,0.57
2022-12-31T03:47:22.559Z,0.77
2022-12-31T03:49:49.012Z,0.70
2022-12-31T03:52:15.438Z,0.70
2022-12-31T03:54:41.863Z,0.50
2022-12-31T03:57:08.488Z,0.45
2022-12-31T03:59:35.083Z,0.77
2022-12-31T04:02:01.751Z,0.50
2022-12-31T04:04:28.371Z,0.50
2022-12-31T04:06:54.830Z,0.50
2022-12-31T04:09:21.380Z,0.80
2022-12-31T04:11:47.907Z,0.50
2022-12-31T04:14:14.729Z,0.40
2022-12-31T04:16:41.353Z,0.65
2022-12-31T04:19:07.820Z,0.50
2022-12-31T04:21:35.289Z,0.50
2022-12-31T04:24:02.660Z,0.50
2022-12-31T04:26:30.200Z,0.57
2022-12-31T04:28:56.692Z,0.57
2022-12-31T04:31:23.235Z,0.65
2022-12-31T04:33:49.727Z,0.70
2022-12-31T04:36:16.400Z,0.57
2022-12-31T04:38:42.829Z,0.45
2022-12-31T04:41:19.197Z,0.40
2022-12-31T04:43:51.111Z,0.45
2022-12-31T04:46:19.849Z,0.35
2022-12-31T04:48:46.690Z,0.73
2022-12-31T04:51:13.652Z,0.57
2022-12-31T04:53:40.600Z,0.60
2022-12-31T04:56:07.323Z,0.70
2022-12-31T04:58:34.744Z,0.70
2022-12-31T05:01:01.400Z,0.68
2022-12-31T05:03:28.412Z,0.57
2022-12-31T05:06:01.149Z,0.65
2022-12-31T05:08:27.681Z,0.70
2022-12-31T05:10:54.200Z,0.77
2022-12-31T05:13:20.853Z,0.70
2022-12-31T05:15:47.625Z,0.70
2022-12-31T05:18:14.213Z,0.60
2022-12-31T05:20:40.965Z,0.68
2022-12-31T05:23:07.852Z,0.63
2022-12-31T05:25:34.931Z,0.70
2022-12-31T05:28:01.615Z,0.70
2022-12-31T05:30:28.122Z,0.60
2022-12-31T05:32:54.879Z,0.60
2022-12-31T05:35:21.406Z,0.57
2022-12-31T05:37:47.937Z,0.70
2022-12-31T05:40:14.408Z,0.50
2022-12-31T05:42:40.798Z,0.55
2022-12-31T05:45:07.899Z,0.70
2022-12-31T05:47:34.342Z,0.60
2022-12-31T05:50:00.841Z,0.60
2022-12-31T05:52:27.293Z,0.60
2022-12-31T05:54:53.815Z,0.60
2022-12-31T05:57:20.232Z,0.50
2022-12-31T05:59:46.694Z,0.70
2022-12-31T06:02:13.222Z,0.60
2022-12-31T06:04:39.912Z,0.60
2022-12-31T06:07:06.598Z,0.50
2022-12-31T06:09:33.033Z,0.50
2022-12-31T06:11:59.433Z,0.57
2022-12-31T06:14:26.003Z,0.60
2022-12-31T06:16:52.387Z,0.57
2022-12-31T06:19:18.857Z,0.70
2022-12-31T06:21:45.382Z,0.68
2022-12-31T06:24:12.394Z,0.68
2022-12-31T06:26:38.962Z,0.50
2022-12-31T06:29:05.406Z,0.50
2022-12-31T06:31:32.263Z,0.47
2022-12-31T06:33:59.069Z,0.80
2022-12-31T06:36:27.047Z,0.50
2022-12-31T06:38:53.870Z,0.77
2022-12-31T06:41:20.655Z,0.60
2022-12-31T06:43:47.499Z,0.80
2022-12-31T06:46:16.998Z,0.65
2022-12-31T06:48:44.928Z,0.50
2022-12-31T06:51:19.757Z,0.70
2022-12-31T06:53:48.106Z,0.80
2022-12-31T06:56:19.361Z,0.90
2022-12-31T06:58:46.318Z,0.60
2022-12-31T07:01:44.456Z,0.70
2022-12-31T07:04:34.984Z,0.57
2022-12-31T07:07:27.033Z,0.60
2022-12-31T07:10:30.929Z,0.52
2022-12-31T07:13:30.114Z,0.50
2022-12-31T07:16:11.174Z,0.68
2022-12-31T07:18:50.296Z,0.50
2022-12-31T07:21:23.979Z,0.63
2022-12-31T07:23:50.672Z,0.57
2022-12-31T07:27:11.280Z,0.50
2022-12-31T07:30:00.959Z,0.52
2022-12-31T07:32:36.966Z,0.68
2022-12-31T07:35:35.301Z,0.60
2022-12-31T07:38:32.732Z,0.70
2022-12-31T07:41:10.054Z,0.75
2022-12-31T07:44:07.721Z,0.70
2022-12-31T07:46:40.110Z,0.90
2022-12-31T07:49:12.209Z,1.10
2022-12-31T07:51:39.460Z,0.90
2022-12-31T07:54:11.814Z,0.85
2022-12-31T07:56:40.591Z,0.68
2022-12-31T07:59:29.528Z,0.75
2022-12-31T08:02:14.850Z,0.70
2022-12-31T08:04:49.576Z,0.80
2022-12-31T08:07:22.332Z,0.70
2022-12-31T08:10:03.531Z,0.80
2022-12-31T08:12:34.937Z,0.73
2022-12-31T08:15:02.015Z,0.70
2022-12-31T08:17:28.644Z,0.63
2022-12-31T08:19:55.295Z,0.63
2022-12-31T08:22:40.281Z,0.68
2022-12-31T08:25:52.424Z,0.63
2022-12-31T08:28:52.668Z,0.80
2022-12-31T08:31:23.452Z,0.70
2022-12-31T08:34:17.747Z,0.80
2022-12-31T08:37:08.645Z,0.60
2022-12-31T08:40:13.069Z,0.75
2022-12-31T08:43:04.367Z,0.70
2022-12-31T08:46:00.711Z,0.50
2022-12-31T08:48:38.599Z,0.68
2022-12-31T08:51:05.812Z,0.77
2022-12-31T08:53:32.612Z,0.70
2022-12-31T08:56:07.974Z,0.60
2022-12-31T08:59:03.977Z,0.88
2022-12-31T09:01:46.291Z,0.60
2022-12-31T09:04:30.074Z,0.77
2022-12-31T09:07:01.078Z,0.80
2022-12-31T09:09:40.778Z,0.63
2022-12-31T09:12:28.538Z,0.70
2022-12-31T09:17:44.368Z,0.55
2022-12-31T09:20:41.795Z,0.80
2022-12-31T09:23:10.233Z,0.77
2022-12-31T09:25:46.325Z,0.80
2022-12-31T09:28:36.717Z,0.65
2022-12-31T09:31:11.306Z,0.80
2022-12-31T09:33:58.595Z,0.75
2022-12-31T09:36:38.969Z,0.80
2022-12-31T09:39:22.580Z,0.85
2022-12-31T09:41:55.119Z,0.70
2022-12-31T09:44:30.573Z,0.90
2022-12-31T09:47:27.964Z,0.60
2022-12-31T09:50:25.327Z,0.90
2022-12-31T09:53:21.605Z,0.70
2022-12-31T09:56:12.383Z,0.65
2022-12-31T09:58:57.402Z,0.80
2022-12-31T10:01:37.425Z,1.00
2022-12-31T10:04:15.569Z,1.00
2022-12-31T10:07:06.059Z,0.70
2022-12-31T10:10:07.647Z,0.75
2022-12-31T10:12:52.834Z,0.80
2022-12-31T10:15:43.564Z,0.82
2022-12-31T10:18:37.956Z,0.88
2022-12-31T10:21:32.580Z,0.75
2022-12-31T10:24:04.401Z,1.00
2022-12-31T10:27:09.415Z,0.60
2022-12-31T10:29:47.254Z,0.70
2022-12-31T10:32:18.781Z,0.77
2022-12-31T10:34:56.309Z,0.45
2022-12-31T10:37:43.400Z,0.60
2022-12-31T10:40:20.355Z,0.55
2022-12-31T10:43:27.606Z,0.57
2022-12-31T10:46:16.231Z,0.90
2022-12-31T10:48:54.334Z,1.00
2022-12-31T10:51:45.378Z,0.70
2022-12-31T10:55:03.249Z,0.70
2022-12-31T10:57:39.727Z,0.90
2022-12-31T11:00:15.292Z,0.80
2022-12-31T11:03:23.517Z,0.77
2022-12-31T11:06:22.777Z,0.80
2022-12-31T11:09:18.613Z,0.52
2022-12-31T11:12:00.092Z,1.00
2022-12-31T11:14:45.292Z,0.63
2022-12-31T11:17:31.198Z,0.80
2022-12-31T11:20:01.946Z,0.70
2022-12-31T11:22:39.793Z,0.90
2022-12-31T11:25:12.753Z,0.90
2022-12-31T11:27:57.315Z,0.90
2022-12-31T11:30:41.722Z,0.70
2022-12-31T11:33:35.272Z,0.68
2022-12-31T11:36:22.853Z,1.00
2022-12-31T11:39:01.890Z,0.60
2022-12-31T11:41:39.689Z,0.73
2022-12-31T11:44:23.853Z,0.77
2022-12-31T11:47:12.308Z,0.60
2022-12-31T11:49:53.765Z,0.70
2022-12-31T11:52:33.280Z,0.50
2022-12-31T11:55:18.074Z,0.70
2022-12-31T11:57:50.560Z,0.70
2022-12-31T12:00:22.124Z,0.70
2022-12-31T12:02:54.820Z,0.60
2022-12-31T12:05:26.062Z,0.65
2022-12-31T12:07:53.655Z,0.70
2022-12-31T12:10:35.674Z,0.60
2022-12-31T12:13:21.281Z,1.00
2022-12-31T12:15:51.305Z,0.50
2022-12-31T12:18:43.943Z,1.00
2022-12-31T12:21:25.164Z,0.50
2022-12-31T12:23:58.531Z,0.60
2022-12-31T12:26:29.789Z,0.55
2022-12-31T12:29:00.254Z,0.52
2022-12-31T12:31:27.507Z,0.63
2022-12-31T12:33:54.066Z,0.75
2022-12-31T12:36:21.745Z,0.90
2022-12-31T12:38:48.294Z,0.80
2022-12-31T12:41:25.373Z,0.98
2022-12-31T12:44:14.284Z,0.90
2022-12-31T12:46:48.402Z,1.00
2022-12-31T12:49:29.314Z,0.47
2022-12-31T12:52:01.737Z,0.60
2022-12-31T12:54:47.022Z,0.50
2022-12-31T12:57:24.389Z,0.50
2022-12-31T13:00:13.002Z,0.50
2022-12-31T13:03:11.740Z,0.70
2022-12-31T13:06:10.044Z,0.75
2022-12-31T13:08:56.909Z,0.75
2022-12-31T13:11:41.812Z,0.70
2022-12-31T13:14:39.469Z,0.60
2022-12-31T13:17:34.937Z,0.73
2022-12-31T13:20:24.443Z,0.60
2022-12-31T13:23:15.411Z,0.57
2022-12-31T13:26:17.033Z,0.73
2022-12-31T13:28:47.075Z,0.60
2022-12-31T13:31:17.374Z,0.73
2022-12-31T13:33:53.730Z,0.65
2022-12-31T13:36:23.619Z,0.63
2022-12-31T13:38:56.557Z,0.70
2022-12-31T13:41:28.967Z,1.17
2022-12-31T13:44:06.772Z,0.70
2022-12-31T13:46:56.119Z,0.70
2022-12-31T13:49:32.572Z,0.70
2022-12-31T13:52:07.072Z,0.60
2022-12-31T13:54:52.718Z,0.55
2022-12-31T13:57:26.950Z,0.60
2022-12-31T13:59:59.284Z,0.68
2022-12-31T14:02:29.085Z,0.70
2022-12-31T14:05:16.671Z,1.02
2022-12-31T14:07:49.855Z,0.70
2022-12-31T14:10:19.364Z,0.65
2022-12-31T14:13:05.554Z,0.70
2022-12-31T14:15:36.969Z,0.70
2022-12-31T14:18:11.560Z,0.68
2022-12-31T14:21:03.671Z,0.80
2022-12-31T14:23:42.226Z,0.65
2022-12-31T14:26:41.793Z,0.80
2022-12-31T14:29:11.266Z,0.63
2022-12-31T14:31:50.083Z,0.68
2022-12-31T14:34:28.687Z,0.90
2022-12-31T14:37:13.756Z,0.85
2022-12-31T14:40:00.802Z,0.80
2022-12-31T14:42:40.371Z,1.00
2022-12-31T14:45:22.119Z,0.90
2022-12-31T14:48:49.926Z,0.93
2022-12-31T14:51:16.805Z,0.75
2022-12-31T14:53:52.737Z,0.80
2022-12-31T14:56:33.318Z,0.70
2022-12-31T14:59:02.333Z,0.95
2022-12-31T15:01:29.320Z,0.90
2022-12-31T15:03:58.049Z,0.93
2022-12-31T15:06:24.556Z,1.10
2022-12-31T15:09:19.633Z,1.20
2022-12-31T15:12:06.345Z,1.05
2022-12-31T15:14:45.104Z,1.00
2022-12-31T15:17:17.135Z,0.80
2022-12-31T15:19:46.408Z,0.95
2022-12-31T15:22:28.299Z,1.10
2022-12-31T15:24:55.292Z,1.52
2022-12-31T15:27:30.807Z,0.90
2022-12-31T15:29:57.465Z,0.73
2022-12-31T15:32:35.700Z,1.13
2022-12-31T15:35:20.788Z,0.90
2022-12-31T15:38:02.351Z,0.80
2022-12-31T15:40:29.678Z,0.88
2022-12-31T15:43:12.836Z,0.88
2022-12-31T15:45:42.067Z,1.10
2022-12-31T15:48:17.446Z,1.00
2022-12-31T15:50:44.787Z,0.75
2022-12-31T15:53:27.541Z,1.20
2022-12-31T15:55:56.338Z,1.20
2022-12-31T15:58:25.679Z,1.20
2022-12-31T16:00:57.260Z,1.40
2022-12-31T16:03:27.215Z,1.70
2022-12-31T16:06:00.037Z,1.33
2022-12-31T16:08:31.501Z,1.10
2022-12-31T16:10:59.246Z,1.35
2022-12-31T16:13:27.772Z,1.10
2022-12-31T16:16:04.917Z,1.30
2022-12-31T16:18:43.294Z,8.18
2022-12-31T16:21:32.649Z,2.50
2022-12-31T16:24:02.972Z,1.38
2022-12-31T16:26:49.949Z,1.30
2022-12-31T16:29:18.686Z,1.50
2022-12-31T16:31:46.639Z,1.98
2022-12-31T16:34:39.414Z,1.70
2022-12-31T16:37:13.723Z,1.55
2022-12-31T16:42:28.324Z,1.58
2022-12-31T16:44:57.007Z,1.23
2022-12-31T16:47:28.289Z,1.27
2022-12-31T16:50:04.078Z,2.00
2022-12-31T16:52:43.377Z,1.33
2022-12-31T16:55:15.473Z,2.08
2022-12-31T16:57:45.890Z,1.50
2022-12-31T17:00:18.073Z,1.35
2022-12-31T17:03:10.373Z,1.50
2022-12-31T17:06:16.424Z,1.42
2022-12-31T17:09:02.399Z,1.77
2022-12-31T17:11:35.462Z,2.03
2022-12-31T17:14:13.843Z,1.60
2022-12-31T17:17:02.689Z,1.70
2022-12-31T17:19:38.820Z,1.73
2022-12-31T17:22:11.596Z,1.77
2022-12-31T17:24:39.055Z,2.33
2022-12-31T17:27:07.207Z,2.38
2022-12-31T17:29:34.431Z,2.25
2022-12-31T17:32:08.409Z,1.80
2022-12-31T17:34:40.039Z,1.40
2022-12-31T17:37:13.016Z,1.73
2022-12-31T17:39:49.476Z,2.53
2022-12-31T17:42:25.445Z,2.30
2022-12-31T17:44:55.969Z,1.58
2022-12-31T17:47:22.615Z,1.33
2022-12-31T17:49:49.211Z,1.52
2022-12-31T17:52:16.076Z,2.20
2022-12-31T17:54:43.135Z,1.80
2022-12-31T17:57:23.625Z,1.77
2022-12-31T17:59:50.180Z,2.05
2022-12-31T18:02:16.734Z,1.90
2022-12-31T18:04:43.358Z,1.83
2022-12-31T18:07:09.787Z,2.10
2022-12-31T18:09:36.201Z,2.35
2022-12-31T18:12:05.757Z,1.77
2022-12-31T18:14:32.216Z,1.98
2022-12-31T18:16:58.713Z,2.20
2022-12-31T18:19:54.256Z,1.88
2022-12-31T18:22:16.173Z,2.10
2022-12-31T18:24:43.561Z,1.95
2022-12-31T18:27:17.892Z,2.30
2022-12-31T18:29:44.912Z,3.10
2022-12-31T18:32:21.175Z,2.15
2022-12-31T18:34:47.905Z,2.50
2022-12-31T18:37:21.322Z,2.47
2022-12-31T18:39:48.405Z,2.58
2022-12-31T18:42:17.324Z,2.42
2022-12-31T18:44:45.092Z,2.30
2022-12-31T18:49:42.988Z,2.15
2022-12-31T18:52:13.773Z,2.50
2022-12-31T18:54:40.334Z,2.53
2022-12-31T18:57:06.957Z,2.70
2022-12-31T18:59:33.409Z,2.40
2022-12-31T19:02:00.002Z,2.38
2022-12-31T19:04:28.304Z,2.50
2022-12-31T19:06:55.953Z,2.35
2022-12-31T19:09:44.719Z,3.85
2022-12-31T19:12:13.407Z,3.15
2022-12-31T19:14:40.004Z,3.63
2022-12-31T19:19:31.760Z,6.83
2022-12-31T19:21:58.210Z,5.18
2022-12-31T19:24:27.336Z,3.45
2022-12-31T19:26:54.837Z,3.40
2022-12-31T19:29:27.611Z,4.32
2022-12-31T19:31:54.503Z,3.30
2022-12-31T19:34:21.118Z,3.25
2022-12-31T19:36:47.605Z,2.90
2022-12-31T19:39:19.675Z,3.08
2022-12-31T19:41:51.419Z,2.20
2022-12-31T19:44:22.874Z,2.45
2022-12-31T19:46:49.450Z,2.42
2022-12-31T19:49:16.510Z,2.72
2022-12-31T19:51:43.226Z,2.20
2022-12-31T19:54:12.944Z,2.35
2022-12-31T19:56:39.424Z,2.33
2022-12-31T19:59:07.577Z,2.55
2022-12-31T20:01:34.375Z,2.53
2022-12-31T20:04:01.008Z,4.60
2022-12-31T20:06:27.522Z,4.47
2022-12-31T20:08:53.960Z,3.83
2022-12-31T20:11:22.310Z,4.90
2022-12-31T20:13:49.944Z,4.20
2022-12-31T20:16:18.444Z,4.78
2022-12-31T20:18:46.693Z,4.22
2022-12-31T20:21:20.009Z,4.45
2022-12-31T20:23:48.182Z,3.70
2022-12-31T20:26:14.687Z,4.32
2022-12-31T20:28:41.379Z,4.18
2022-12-31T20:31:09.373Z,4.55
2022-12-31T20:33:36.338Z,4.53
2022-12-31T20:36:04.911Z,3.80
2022-12-31T20:38:31.550Z,3.30
2022-12-31T20:41:11.817Z,3.50
2022-12-31T20:43:38.797Z,2.88
2022-12-31T20:46:14.396Z,3.42
2022-12-31T20:48:41.879Z,3.83
2022-12-31T20:51:08.434Z,5.80
2022-12-31T20:53:34.982Z,6.70
2022-12-31T20:56:05.634Z,8.02
2022-12-31T20:58:32.239Z,9.25
2022-12-31T21:01:00.172Z,21.45
2022-12-31T21:04:02.929Z,14.38
2022-12-31T21:06:14.377Z,13.93
2022-12-31T21:08:41.409Z,21.05
2022-12-31T21:11:27.020Z,10.45
2022-12-31T21:13:54.929Z,17.63
2022-12-31T21:18:47.888Z,17.63
2022-12-31T21:21:14.496Z,15.00
2022-12-31T21:23:41.039Z,15.32
2022-12-31T21:26:07.700Z,11.90
2022-12-31T21:28:34.492Z,15.25
2022-12-31T21:31:03.727Z,14.43
2022-12-31T21:33:30.773Z,14.75
2022-12-31T21:36:02.632Z,12.45
2022-12-31T21:38:30.945Z,12.18
2022-12-31T21:41:02.750Z,11.77
2022-12-31T21:43:29.169Z,9.88
2022-12-31T21:46:07.120Z,9.57
2022-12-31T21:48:34.748Z,8.27
2022-12-31T21:51:15.137Z,8.48
2022-12-31T21:53:41.517Z,7.60
2022-12-31T21:56:09.903Z,7.90
2022-12-31T21:58:39.038Z,6.50
2022-12-31T22:01:25.093Z,6.07
2022-12-31T22:03:51.777Z,6.15
2022-12-31T22:06:21.232Z,6.43
2022-12-31T22:08:53.445Z,6.22
2022-12-31T22:11:22.546Z,8.38
2022-12-31T22:13:49.809Z,13.85
2022-12-31T22:16:17.256Z,8.55
2022-12-31T22:18:44.223Z,7.65
2022-12-31T22:21:19.981Z,8.40
2022-12-31T22:23:49.166Z,8.45
2022-12-31T22:26:17.752Z,13.30
2022-12-31T22:28:45.846Z,13.43
2022-12-31T22:31:21.686Z,12.45
2022-12-31T22:33:48.302Z,13.20
2022-12-31T22:36:20.121Z,16.70
2022-12-31T22:38:47.324Z,16.15
2022-12-31T22:41:19.697Z,55.20
2022-12-31T22:43:49.364Z,80.07
2022-12-31T22:46:18.462Z,57.58
2022-12-31T22:48:45.394Z,24.35
2022-12-31T22:51:12.758Z,16.25
2022-12-31T22:53:41.090Z,18.63
2022-12-31T22:56:08.481Z,18.13
2022-12-31T22:58:34.966Z,17.70
2022-12-31T23:01:06.088Z,23.65
2022-12-31T23:03:32.800Z,28.92
2022-12-31T23:05:59.785Z,24.23
2022-12-31T23:08:26.446Z,32.20
2022-12-31T23:11:00.313Z,33.78
2022-12-31T23:13:50.855Z,39.53
2022-12-31T23:16:36.952Z,119.38
2022-12-31T23:19:22.312Z,150.32
2022-12-31T23:22:07.273Z,214.77
2022-12-31T23:24:33.832Z,207.73
2022-12-31T23:27:00.464Z,179.73
2022-12-31T23:29:26.951Z,282.08
2022-12-31T23:31:53.661Z,325.90
2022-12-31T23:34:20.270Z,422.17
2022-12-31T23:36:46.748Z,408.58
2022-12-31T23:39:13.530Z,240.23
2022-12-31T23:41:40.500Z,265.23
2022-12-31T23:44:07.531Z,404.60
2022-12-31T23:46:34.066Z,338.98
2022-12-31T23:49:00.549Z,289.92
2022-12-31T23:51:27.136Z,206.68
2022-12-31T23:53:53.637Z,174.45
2022-12-31T23:56:23.987Z,228.60
2022-12-31T23:58:55.269Z,88.70
